createdAt,value
2016-10-31T00:00:29.302Z,0
2016-10-31T00:01:40.314Z,0
2016-10-31T00:02:51.693Z,0
2016-10-31T00:04:02.559Z,0
2016-10-31T00:05:13.947Z,0
2016-10-31T00:06:25.953Z,0
2016-10-31T00:07:36.374Z,0
2016-10-31T00:08:46.690Z,0
2016-10-31T00:09:57.108Z,0
2016-10-31T00:11:09.618Z,0
2016-10-31T00:12:20.910Z,0
2016-10-31T00:13:31.905Z,0
2016-10-31T00:14:44.619Z,0
2016-10-31T00:15:56.078Z,0
2016-10-31T00:17:05.882Z,0
2016-10-31T00:18:18.581Z,0
2016-10-31T00:19:29.574Z,0
2016-10-31T00:20:41.067Z,0
2016-10-31T00:21:53.302Z,0
2016-10-31T00:23:03.970Z,0
2016-10-31T00:24:16.332Z,0
2016-10-31T00:25:27.374Z,0
2016-10-31T00:26:38.728Z,0
2016-10-31T00:27:50.514Z,0
2016-10-31T00:29:02.159Z,0
2016-10-31T00:30:14.770Z,0
2016-10-31T00:31:26.496Z,0
2016-10-31T00:32:38.192Z,0
2016-10-31T00:33:49.498Z,0
2016-10-31T00:35:02.209Z,0
2016-10-31T00:36:13.362Z,0
2016-10-31T00:37:24.383Z,0
2016-10-31T00:38:35.064Z,0
2016-10-31T00:39:47.771Z,0
2016-10-31T00:40:58.370Z,0
2016-10-31T00:42:10.598Z,0
2016-10-31T00:43:21.743Z,0
2016-10-31T00:44:35.018Z,0
2016-10-31T00:45:47.066Z,0
2016-10-31T00:46:59.060Z,0
2016-10-31T00:48:10.314Z,0
2016-10-31T00:49:22.137Z,0
2016-10-31T00:50:33.821Z,0
2016-10-31T00:51:45.507Z,0
2016-10-31T00:52:55.522Z,0
2016-10-31T00:54:07.916Z,0
2016-10-31T00:55:19.373Z,0
2016-10-31T00:56:30.845Z,0
2016-10-31T00:57:42.076Z,0
2016-10-31T00:58:55.270Z,0
2016-10-31T01:00:05.863Z,0
2016-10-31T01:01:18.042Z,0
2016-10-31T01:02:29.698Z,0
2016-10-31T01:03:41.618Z,0
2016-10-31T01:04:52.280Z,0
2016-10-31T01:06:04.419Z,0
2016-10-31T01:07:17.033Z,0
2016-10-31T01:08:27.158Z,0
2016-10-31T01:09:38.454Z,0
2016-10-31T01:10:51.280Z,0
2016-10-31T01:12:03.185Z,0
2016-10-31T01:13:14.376Z,0
2016-10-31T01:14:26.039Z,0
2016-10-31T01:15:38.042Z,0
2016-10-31T01:16:48.343Z,0
2016-10-31T01:18:00.039Z,0
2016-10-31T01:19:10.668Z,0
2016-10-31T01:20:22.119Z,0
2016-10-31T01:21:33.304Z,0
2016-10-31T01:22:44.524Z,0
2016-10-31T01:23:55.748Z,0
2016-10-31T01:25:07.723Z,0
2016-10-31T01:26:19.355Z,0
2016-10-31T01:27:31.325Z,0
2016-10-31T01:28:43.866Z,0
2016-10-31T01:29:54.054Z,0
2016-10-31T01:31:06.270Z,0
2016-10-31T01:32:19.086Z,0
2016-10-31T01:33:30.439Z,0
2016-10-31T01:34:42.424Z,0
2016-10-31T01:35:53.401Z,0
2016-10-31T01:37:05.345Z,0
2016-10-31T01:38:18.204Z,0
2016-10-31T01:39:29.856Z,0
2016-10-31T01:40:42.174Z,0
2016-10-31T01:41:53.002Z,0
2016-10-31T01:43:04.395Z,0
2016-10-31T01:44:15.318Z,0
2016-10-31T01:45:26.484Z,0
2016-10-31T01:46:39.335Z,0
2016-10-31T01:47:51.084Z,0
2016-10-31T01:49:02.568Z,0
2016-10-31T01:50:13.812Z,0
2016-10-31T01:51:26.677Z,0
2016-10-31T01:52:37.380Z,0
2016-10-31T01:53:48.967Z,0
2016-10-31T01:55:00.445Z,0
2016-10-31T01:56:11.960Z,0
2016-10-31T01:57:23.876Z,0
2016-10-31T01:58:34.836Z,0
2016-10-31T01:59:46.300Z,0
2016-10-31T02:00:56.990Z,0
2016-10-31T02:02:08.669Z,0
2016-10-31T02:03:19.838Z,0
2016-10-31T02:04:31.933Z,0
2016-10-31T02:05:43.115Z,0
2016-10-31T02:06:53.947Z,0
2016-10-31T02:08:05.449Z,0
2016-10-31T02:09:17.568Z,0
2016-10-31T02:10:28.753Z,0
2016-10-31T02:11:38.795Z,0
2016-10-31T02:12:50.955Z,0
2016-10-31T02:14:01.255Z,0
2016-10-31T02:15:11.746Z,0
2016-10-31T02:16:21.937Z,0
2016-10-31T02:17:33.131Z,0
2016-10-31T02:18:44.987Z,0
2016-10-31T02:19:56.613Z,0
2016-10-31T02:21:09.242Z,0
2016-10-31T02:22:19.972Z,0
2016-10-31T02:23:31.426Z,0
2016-10-31T02:24:42.852Z,0
2016-10-31T02:25:53.779Z,0
2016-10-31T02:27:04.382Z,0
2016-10-31T02:28:15.579Z,0
2016-10-31T02:29:27.592Z,0
2016-10-31T02:30:39.858Z,0
2016-10-31T02:31:50.979Z,0
2016-10-31T02:33:02.458Z,0
2016-10-31T02:34:14.643Z,0
2016-10-31T02:35:25.814Z,0
2016-10-31T02:36:36.702Z,0
2016-10-31T02:37:48.231Z,0
2016-10-31T02:38:59.908Z,0
2016-10-31T02:40:11.723Z,0
2016-10-31T02:41:23.362Z,0
2016-10-31T02:42:35.477Z,0
2016-10-31T02:43:46.341Z,0
2016-10-31T02:44:56.723Z,0
2016-10-31T02:46:09.172Z,0
2016-10-31T02:47:20.108Z,0
2016-10-31T02:48:31.276Z,0
2016-10-31T02:49:42.076Z,0
2016-10-31T02:50:53.659Z,0
2016-10-31T02:52:04.163Z,0
2016-10-31T02:53:15.576Z,0
2016-10-31T02:54:28.095Z,0
2016-10-31T02:55:39.385Z,0
2016-10-31T02:56:50.421Z,0
2016-10-31T02:58:02.185Z,0
2016-10-31T02:59:14.945Z,0
2016-10-31T03:00:27.692Z,0
2016-10-31T03:01:40.952Z,0
2016-10-31T03:02:52.215Z,0
2016-10-31T03:04:04.538Z,0
2016-10-31T03:05:15.355Z,0
2016-10-31T03:06:26.422Z,0
2016-10-31T03:07:39.642Z,0
2016-10-31T03:08:52.014Z,0
2016-10-31T03:10:03.741Z,0
2016-10-31T03:11:14.896Z,0
2016-10-31T03:12:26.073Z,0
2016-10-31T03:13:37.068Z,0
2016-10-31T03:14:48.250Z,0
2016-10-31T03:15:59.402Z,0
2016-10-31T03:17:10.326Z,0
2016-10-31T03:18:21.777Z,0
2016-10-31T03:19:34.430Z,0
2016-10-31T03:20:45.124Z,0
2016-10-31T03:21:56.791Z,0
2016-10-31T03:23:08.035Z,0
2016-10-31T03:24:20.744Z,0
2016-10-31T03:25:32.776Z,0
2016-10-31T03:26:42.699Z,0
2016-10-31T03:27:55.051Z,0
2016-10-31T03:29:05.279Z,0
2016-10-31T03:30:17.085Z,0
2016-10-31T03:31:29.557Z,0
2016-10-31T03:32:42.008Z,0
2016-10-31T03:33:54.718Z,0
2016-10-31T03:35:06.988Z,0
2016-10-31T03:36:18.522Z,0
2016-10-31T03:37:30.486Z,0
2016-10-31T03:38:42.358Z,0
2016-10-31T03:39:53.815Z,0
2016-10-31T03:41:05.747Z,0
2016-10-31T03:42:17.970Z,0
2016-10-31T03:43:30.182Z,0
2016-10-31T03:44:41.218Z,0
2016-10-31T03:45:53.916Z,0
2016-10-31T03:47:07.206Z,0
2016-10-31T03:48:18.833Z,0
2016-10-31T03:49:30.262Z,0
2016-10-31T03:50:41.081Z,0
2016-10-31T03:51:51.423Z,0
2016-10-31T03:53:02.871Z,0
2016-10-31T03:54:15.335Z,0
2016-10-31T03:55:27.413Z,0
2016-10-31T03:56:40.252Z,0
2016-10-31T03:57:52.481Z,0
2016-10-31T03:59:03.518Z,0
2016-10-31T04:00:14.584Z,0
2016-10-31T04:01:24.963Z,0
2016-10-31T04:02:37.300Z,0
2016-10-31T04:03:49.357Z,0
2016-10-31T04:05:00.569Z,0
2016-10-31T04:06:11.948Z,0
2016-10-31T04:07:24.291Z,0
2016-10-31T04:08:35.653Z,0
2016-10-31T04:09:47.148Z,0
2016-10-31T04:10:59.976Z,0
2016-10-31T04:12:10.997Z,0
2016-10-31T04:13:22.501Z,0
2016-10-31T04:14:35.263Z,0
2016-10-31T04:15:46.603Z,0
2016-10-31T04:16:56.701Z,0
2016-10-31T04:18:09.154Z,0
2016-10-31T04:19:21.924Z,0
2016-10-31T04:20:33.334Z,0
2016-10-31T04:21:44.266Z,0
2016-10-31T04:22:55.713Z,0
2016-10-31T04:24:06.489Z,0
2016-10-31T04:25:17.204Z,0
2016-10-31T04:26:28.606Z,0
2016-10-31T04:27:40.135Z,0
2016-10-31T04:28:52.150Z,0
2016-10-31T04:30:02.753Z,0
2016-10-31T04:31:15.114Z,0
2016-10-31T04:32:27.093Z,0
2016-10-31T04:33:39.467Z,0
2016-10-31T04:34:51.537Z,0
2016-10-31T04:36:02.764Z,0
2016-10-31T04:37:14.876Z,0
2016-10-31T04:38:26.434Z,0
2016-10-31T04:39:37.344Z,0
2016-10-31T04:40:49.556Z,0
2016-10-31T04:42:00.890Z,0
2016-10-31T04:43:12.102Z,0
2016-10-31T04:44:24.162Z,0
2016-10-31T04:45:35.858Z,0
2016-10-31T04:46:47.286Z,0
2016-10-31T04:47:58.320Z,0
2016-10-31T04:49:08.412Z,0
2016-10-31T04:50:20.412Z,0
2016-10-31T04:51:30.816Z,0
2016-10-31T04:52:42.295Z,0
2016-10-31T04:53:53.090Z,0
2016-10-31T04:55:04.771Z,0
2016-10-31T04:56:15.804Z,0
2016-10-31T04:57:27.004Z,0
2016-10-31T04:58:38.087Z,0
2016-10-31T04:59:50.159Z,0
2016-10-31T05:01:00.932Z,0
2016-10-31T05:02:12.499Z,0
2016-10-31T05:03:24.601Z,0
2016-10-31T05:04:36.690Z,0
2016-10-31T05:05:48.350Z,0
2016-10-31T05:06:59.908Z,0
2016-10-31T05:08:12.664Z,0
2016-10-31T05:09:22.962Z,0
2016-10-31T05:10:35.118Z,0
2016-10-31T05:11:45.435Z,0
2016-10-31T05:12:56.255Z,0
2016-10-31T05:14:07.401Z,0
2016-10-31T05:15:19.602Z,0
2016-10-31T05:16:31.880Z,0
2016-10-31T05:17:44.532Z,0
2016-10-31T05:18:55.509Z,0
2016-10-31T05:20:07.900Z,0
2016-10-31T05:21:21.195Z,0
2016-10-31T05:22:32.908Z,0
2016-10-31T05:23:44.539Z,0
2016-10-31T05:24:55.930Z,0
2016-10-31T05:26:08.144Z,0
2016-10-31T05:27:19.216Z,0
2016-10-31T05:28:29.930Z,0
2016-10-31T05:29:41.593Z,0
2016-10-31T05:30:53.011Z,0
2016-10-31T05:32:05.536Z,0
2016-10-31T05:33:18.205Z,0
2016-10-31T05:34:30.729Z,0
2016-10-31T05:35:43.450Z,0
2016-10-31T05:36:55.026Z,0
2016-10-31T05:38:06.650Z,0
2016-10-31T05:39:17.705Z,0
2016-10-31T05:40:29.741Z,0
2016-10-31T05:41:40.461Z,0
2016-10-31T05:42:52.635Z,0
2016-10-31T05:44:04.520Z,0
2016-10-31T05:45:16.014Z,0
2016-10-31T05:46:27.196Z,0
2016-10-31T05:47:39.037Z,0
2016-10-31T05:48:50.336Z,0
2016-10-31T05:50:01.694Z,0
2016-10-31T05:51:13.127Z,0
2016-10-31T05:52:24.656Z,0
2016-10-31T05:53:36.823Z,0
2016-10-31T05:54:48.456Z,0
2016-10-31T05:56:01.118Z,0
2016-10-31T05:57:12.571Z,0
2016-10-31T05:58:25.387Z,0
2016-10-31T05:59:36.569Z,0
2016-10-31T06:00:49.253Z,0
2016-10-31T06:02:01.386Z,0
2016-10-31T06:03:12.506Z,0
2016-10-31T06:04:24.014Z,0
2016-10-31T06:05:36.217Z,0
2016-10-31T06:06:47.581Z,0
2016-10-31T06:07:58.942Z,0
2016-10-31T06:09:11.071Z,0
2016-10-31T06:10:23.656Z,0
2016-10-31T06:11:35.560Z,0
2016-10-31T06:12:48.020Z,0
2016-10-31T06:14:00.126Z,0
2016-10-31T06:15:13.290Z,0
2016-10-31T06:16:23.697Z,0
2016-10-31T06:17:35.766Z,0
2016-10-31T06:18:45.838Z,0
2016-10-31T06:19:57.954Z,0
2016-10-31T06:21:08.751Z,0
2016-10-31T06:22:21.091Z,0
2016-10-31T06:23:33.823Z,0
2016-10-31T06:24:46.148Z,0
2016-10-31T06:25:58.190Z,0
2016-10-31T06:27:11.361Z,5
2016-10-31T06:28:23.662Z,5
2016-10-31T06:29:34.874Z,5
2016-10-31T06:30:46.896Z,5
2016-10-31T06:31:59.145Z,5
2016-10-31T06:33:11.177Z,5
2016-10-31T06:34:23.670Z,5
2016-10-31T06:35:35.150Z,10
2016-10-31T06:36:47.317Z,10
2016-10-31T06:37:58.992Z,10
2016-10-31T06:39:10.831Z,10
2016-10-31T06:40:22.374Z,10
2016-10-31T06:41:34.054Z,10
2016-10-31T06:42:46.079Z,15
2016-10-31T06:43:58.740Z,15
2016-10-31T06:45:10.958Z,15
2016-10-31T06:46:23.678Z,15
2016-10-31T06:47:35.701Z,15
2016-10-31T06:48:47.179Z,20
2016-10-31T06:49:59.331Z,20
2016-10-31T06:51:12.083Z,20
2016-10-31T06:52:24.845Z,20
2016-10-31T06:53:36.245Z,20
2016-10-31T06:54:48.818Z,25
2016-10-31T06:56:01.355Z,30
2016-10-31T06:57:12.802Z,30
2016-10-31T06:58:23.709Z,30
2016-10-31T06:59:35.883Z,30
2016-10-31T07:00:48.551Z,30
2016-10-31T07:02:00.579Z,35
2016-10-31T07:03:13.008Z,35
2016-10-31T07:04:25.546Z,35
2016-10-31T07:05:38.182Z,40
2016-10-31T07:06:50.146Z,40
2016-10-31T07:08:01.728Z,40
2016-10-31T07:09:13.979Z,45
2016-10-31T07:10:25.339Z,45
2016-10-31T07:11:36.695Z,45
2016-10-31T07:12:49.462Z,45
2016-10-31T07:14:01.503Z,50
2016-10-31T07:15:12.924Z,50
2016-10-31T07:16:25.060Z,50
2016-10-31T07:17:37.579Z,55
2016-10-31T07:18:48.472Z,55
2016-10-31T07:20:01.148Z,55
2016-10-31T07:21:13.746Z,55
2016-10-31T07:22:26.048Z,55
2016-10-31T07:23:39.301Z,55
2016-10-31T07:24:51.054Z,60
2016-10-31T07:26:02.816Z,60
2016-10-31T07:27:13.539Z,65
2016-10-31T07:28:25.629Z,65
2016-10-31T07:29:38.307Z,65
2016-10-31T07:30:50.160Z,70
2016-10-31T07:32:01.916Z,70
2016-10-31T07:33:13.755Z,70
2016-10-31T07:34:25.606Z,70
2016-10-31T07:35:37.626Z,75
2016-10-31T07:36:49.930Z,70
2016-10-31T07:38:01.644Z,75
2016-10-31T07:39:13.082Z,80
2016-10-31T07:40:24.838Z,80
2016-10-31T07:41:36.462Z,80
2016-10-31T07:42:48.294Z,85
2016-10-31T07:43:59.268Z,85
2016-10-31T07:45:11.817Z,85
2016-10-31T07:46:24.489Z,90
2016-10-31T07:47:36.650Z,90
2016-10-31T07:48:48.933Z,100
2016-10-31T07:50:01.235Z,100
2016-10-31T07:51:13.423Z,100
2016-10-31T07:52:25.597Z,100
2016-10-31T07:53:37.217Z,105
2016-10-31T07:54:48.277Z,105
2016-10-31T07:56:01.028Z,110
2016-10-31T07:57:13.077Z,115
2016-10-31T07:58:25.763Z,120
2016-10-31T07:59:37.407Z,125
2016-10-31T08:00:50.271Z,125
2016-10-31T08:02:01.074Z,130
2016-10-31T08:03:12.477Z,135
2016-10-31T08:04:24.558Z,135
2016-10-31T08:05:36.465Z,135
2016-10-31T08:06:49.330Z,135
2016-10-31T08:08:02.118Z,140
2016-10-31T08:09:15.342Z,145
2016-10-31T08:10:26.575Z,145
2016-10-31T08:11:38.566Z,150
2016-10-31T08:12:49.498Z,165
2016-10-31T08:14:01.294Z,165
2016-10-31T08:15:12.593Z,170
2016-10-31T08:16:24.841Z,175
2016-10-31T08:17:37.497Z,190
2016-10-31T08:18:49.516Z,190
2016-10-31T08:20:00.811Z,195
2016-10-31T08:21:12.752Z,200
2016-10-31T08:22:25.575Z,205
2016-10-31T08:23:37.298Z,205
2016-10-31T08:24:49.378Z,205
2016-10-31T08:26:00.936Z,195
2016-10-31T08:27:12.507Z,190
2016-10-31T08:28:24.791Z,185
2016-10-31T08:29:36.313Z,185
2016-10-31T08:30:47.075Z,185
2016-10-31T08:31:57.694Z,190
2016-10-31T08:33:09.437Z,195
2016-10-31T08:34:21.730Z,200
2016-10-31T08:35:33.594Z,195
2016-10-31T08:36:44.539Z,195
2016-10-31T08:37:56.863Z,200
2016-10-31T08:39:09.688Z,200
2016-10-31T08:40:21.430Z,205
2016-10-31T08:41:33.915Z,210
2016-10-31T08:42:45.212Z,210
2016-10-31T08:43:57.017Z,215
2016-10-31T08:45:09.345Z,220
2016-10-31T08:46:20.266Z,215
2016-10-31T08:47:31.184Z,205
2016-10-31T08:48:42.560Z,195
2016-10-31T08:49:53.563Z,195
2016-10-31T08:51:05.122Z,190
2016-10-31T08:52:17.272Z,185
2016-10-31T08:53:28.766Z,180
2016-10-31T08:54:40.898Z,180
2016-10-31T08:55:53.018Z,185
2016-10-31T08:57:04.808Z,190
2016-10-31T08:58:16.927Z,195
2016-10-31T08:59:28.854Z,205
2016-10-31T09:00:40.106Z,210
2016-10-31T09:01:52.272Z,215
2016-10-31T09:03:03.559Z,210
2016-10-31T09:04:13.711Z,210
2016-10-31T09:05:25.988Z,210
2016-10-31T09:06:38.082Z,210
2016-10-31T09:07:49.652Z,205
2016-10-31T09:09:01.853Z,205
2016-10-31T09:10:14.067Z,205
2016-10-31T09:11:25.209Z,205
2016-10-31T09:12:36.216Z,205
2016-10-31T09:13:47.089Z,205
2016-10-31T09:14:58.811Z,210
2016-10-31T09:16:11.594Z,220
2016-10-31T09:17:23.688Z,225
2016-10-31T09:18:35.703Z,230
2016-10-31T09:19:48.751Z,235
2016-10-31T09:20:59.816Z,240
2016-10-31T09:22:10.763Z,240
2016-10-31T09:23:20.503Z,240
2016-10-31T09:24:32.636Z,245
2016-10-31T09:25:44.988Z,255
2016-10-31T09:26:57.635Z,265
2016-10-31T09:28:08.952Z,265
2016-10-31T09:29:21.309Z,270
2016-10-31T09:30:33.256Z,275
2016-10-31T09:31:45.112Z,275
2016-10-31T09:32:57.166Z,275
2016-10-31T09:34:08.613Z,275
2016-10-31T09:35:20.444Z,275
2016-10-31T09:36:31.629Z,280
2016-10-31T09:37:44.049Z,275
2016-10-31T09:38:55.270Z,270
2016-10-31T09:40:08.191Z,265
2016-10-31T09:41:19.532Z,255
2016-10-31T09:42:30.696Z,250
2016-10-31T09:43:41.377Z,250
2016-10-31T09:44:52.612Z,245
2016-10-31T09:46:05.870Z,245
2016-10-31T09:47:17.418Z,235
2016-10-31T09:48:28.974Z,230
2016-10-31T09:49:40.670Z,230
2016-10-31T09:50:51.895Z,225
2016-10-31T09:52:04.464Z,225
2016-10-31T09:53:16.110Z,230
2016-10-31T09:54:27.552Z,235
2016-10-31T09:55:39.513Z,245
2016-10-31T09:56:52.285Z,250
2016-10-31T09:58:04.085Z,255
2016-10-31T09:59:16.079Z,260
2016-10-31T10:00:27.790Z,265
2016-10-31T10:01:39.306Z,260
2016-10-31T10:02:50.441Z,255
2016-10-31T10:04:01.742Z,260
2016-10-31T10:05:13.205Z,260
2016-10-31T10:06:25.047Z,260
2016-10-31T10:07:36.672Z,265
2016-10-31T10:08:48.879Z,275
2016-10-31T10:10:01.280Z,280
2016-10-31T10:11:13.585Z,275
2016-10-31T10:12:25.486Z,275
2016-10-31T10:13:37.094Z,280
2016-10-31T10:14:49.769Z,285
2016-10-31T10:16:01.942Z,285
2016-10-31T10:17:13.584Z,285
2016-10-31T10:18:25.531Z,290
2016-10-31T10:19:35.931Z,295
2016-10-31T10:20:45.860Z,295
2016-10-31T10:21:58.004Z,300
2016-10-31T10:23:10.236Z,305
2016-10-31T10:24:21.669Z,305
2016-10-31T10:25:33.373Z,310
2016-10-31T10:26:45.373Z,310
2016-10-31T10:27:57.639Z,310
2016-10-31T10:29:09.089Z,310
2016-10-31T10:30:19.948Z,315
2016-10-31T10:31:32.302Z,325
2016-10-31T10:32:43.946Z,330
2016-10-31T10:33:55.042Z,330
2016-10-31T10:35:06.466Z,330
2016-10-31T10:36:18.974Z,325
2016-10-31T10:37:30.138Z,320
2016-10-31T10:38:43.212Z,325
2016-10-31T10:39:54.165Z,335
2016-10-31T10:41:05.764Z,345
2016-10-31T10:42:18.429Z,345
2016-10-31T10:43:29.559Z,345
2016-10-31T10:44:41.473Z,345
2016-10-31T10:45:53.010Z,345
2016-10-31T10:47:05.518Z,345
2016-10-31T10:48:16.729Z,350
2016-10-31T10:49:29.393Z,355
2016-10-31T10:50:42.120Z,365
2016-10-31T10:51:54.622Z,380
2016-10-31T10:53:07.196Z,395
2016-10-31T10:54:19.975Z,395
2016-10-31T10:55:32.105Z,400
2016-10-31T10:56:44.413Z,400
2016-10-31T10:57:56.482Z,405
2016-10-31T10:59:09.136Z,400
2016-10-31T11:00:20.494Z,400
2016-10-31T11:01:32.375Z,400
2016-10-31T11:02:44.786Z,395
2016-10-31T11:03:56.823Z,390
2016-10-31T11:05:08.054Z,380
2016-10-31T11:06:19.641Z,365
2016-10-31T11:07:31.491Z,370
2016-10-31T11:08:43.473Z,370
2016-10-31T11:09:54.727Z,370
2016-10-31T11:11:06.903Z,355
2016-10-31T11:12:20.026Z,335
2016-10-31T11:13:32.339Z,325
2016-10-31T11:14:43.570Z,315
2016-10-31T11:15:55.104Z,320
2016-10-31T11:17:06.755Z,320
2016-10-31T11:18:18.139Z,325
2016-10-31T11:19:28.689Z,320
2016-10-31T11:20:40.311Z,325
2016-10-31T11:21:51.107Z,335
2016-10-31T11:23:01.116Z,335
2016-10-31T11:24:13.283Z,350
2016-10-31T11:25:25.518Z,340
2016-10-31T11:26:37.606Z,340
2016-10-31T11:27:50.289Z,335
2016-10-31T11:29:02.412Z,345
2016-10-31T11:30:14.358Z,355
2016-10-31T11:31:27.134Z,370
2016-10-31T11:32:38.883Z,420
2016-10-31T11:33:51.466Z,395
2016-10-31T11:35:03.460Z,320
2016-10-31T11:36:14.796Z,310
2016-10-31T11:37:27.040Z,310
2016-10-31T11:38:39.624Z,310
2016-10-31T11:39:51.813Z,345
2016-10-31T11:41:02.331Z,325
2016-10-31T11:42:13.546Z,300
2016-10-31T11:43:26.155Z,300
2016-10-31T11:44:37.809Z,305
2016-10-31T11:45:50.484Z,355
2016-10-31T11:47:02.328Z,355
2016-10-31T11:48:14.010Z,325
2016-10-31T11:49:26.248Z,310
2016-10-31T11:50:37.561Z,320
2016-10-31T11:51:50.286Z,320
2016-10-31T11:53:02.338Z,320
2016-10-31T11:54:14.219Z,330
2016-10-31T11:55:26.923Z,330
2016-10-31T11:56:37.941Z,330
2016-10-31T11:57:51.362Z,360
2016-10-31T11:59:02.873Z,335
2016-10-31T12:00:15.405Z,340
2016-10-31T12:01:27.864Z,350
2016-10-31T12:02:39.406Z,320
2016-10-31T12:03:51.323Z,340
2016-10-31T12:05:03.362Z,325
2016-10-31T12:06:14.920Z,355
2016-10-31T12:07:26.983Z,345
2016-10-31T12:08:39.452Z,290
2016-10-31T12:09:50.810Z,280
2016-10-31T12:11:03.130Z,275
2016-10-31T12:12:15.599Z,290
2016-10-31T12:13:26.400Z,285
2016-10-31T12:14:37.261Z,255
2016-10-31T12:15:48.705Z,235
2016-10-31T12:16:59.753Z,230
2016-10-31T12:18:10.392Z,245
2016-10-31T12:19:21.446Z,235
2016-10-31T12:20:32.711Z,235
2016-10-31T12:21:44.598Z,235
2016-10-31T12:22:55.978Z,265
2016-10-31T12:24:07.564Z,255
2016-10-31T12:25:19.578Z,260
2016-10-31T12:26:32.260Z,255
2016-10-31T12:27:43.941Z,250
2016-10-31T12:28:56.668Z,250
2016-10-31T12:30:07.999Z,260
2016-10-31T12:31:18.877Z,235
2016-10-31T12:32:30.679Z,230
2016-10-31T12:33:41.471Z,220
2016-10-31T12:34:51.274Z,215
2016-10-31T12:36:01.684Z,225
2016-10-31T12:37:14.862Z,225
2016-10-31T12:38:28.174Z,225
2016-10-31T12:39:41.426Z,230
2016-10-31T12:40:52.585Z,240
2016-10-31T12:42:03.315Z,250
2016-10-31T12:43:15.491Z,255
2016-10-31T12:44:27.025Z,270
2016-10-31T12:45:37.834Z,295
2016-10-31T12:46:50.545Z,300
2016-10-31T12:48:03.022Z,280
2016-10-31T12:49:14.411Z,260
2016-10-31T12:50:26.817Z,245
2016-10-31T12:51:39.440Z,240
2016-10-31T12:52:50.512Z,240
2016-10-31T12:54:02.035Z,245
2016-10-31T12:55:14.369Z,230
2016-10-31T12:56:27.166Z,225
2016-10-31T12:57:37.811Z,215
2016-10-31T12:58:49.993Z,205
2016-10-31T13:00:01.305Z,190
2016-10-31T13:01:12.518Z,170
2016-10-31T13:02:24.130Z,160
2016-10-31T13:03:35.539Z,155
2016-10-31T13:04:46.962Z,155
2016-10-31T13:05:59.069Z,150
2016-10-31T13:07:11.341Z,150
2016-10-31T13:08:22.330Z,150
2016-10-31T13:09:35.527Z,150
2016-10-31T13:10:48.124Z,150
2016-10-31T13:12:00.291Z,150
2016-10-31T13:13:11.930Z,145
2016-10-31T13:14:23.599Z,145
2016-10-31T13:15:36.429Z,145
2016-10-31T13:16:48.500Z,145
2016-10-31T13:18:00.285Z,145
2016-10-31T13:19:12.563Z,145
2016-10-31T13:20:23.480Z,140
2016-10-31T13:21:34.536Z,140
2016-10-31T13:22:46.357Z,140
2016-10-31T13:23:59.091Z,140
2016-10-31T13:25:09.984Z,140
2016-10-31T13:26:21.812Z,140
2016-10-31T13:27:33.351Z,135
2016-10-31T13:28:44.730Z,135
2016-10-31T13:29:55.871Z,130
2016-10-31T13:31:06.496Z,130
2016-10-31T13:32:19.106Z,130
2016-10-31T13:33:30.315Z,130
2016-10-31T13:34:42.477Z,130
2016-10-31T13:35:53.995Z,130
2016-10-31T13:37:07.333Z,130
2016-10-31T13:38:19.747Z,130
2016-10-31T13:39:31.996Z,125
2016-10-31T13:40:44.450Z,125
2016-10-31T13:41:55.587Z,125
2016-10-31T13:43:06.256Z,125
2016-10-31T13:44:18.285Z,125
2016-10-31T13:45:29.271Z,120
2016-10-31T13:46:41.324Z,120
2016-10-31T13:47:53.611Z,120
2016-10-31T13:49:05.102Z,115
2016-10-31T13:50:18.327Z,115
2016-10-31T13:51:29.880Z,120
2016-10-31T13:52:40.921Z,120
2016-10-31T13:53:52.733Z,120
2016-10-31T13:55:03.697Z,120
2016-10-31T13:56:15.181Z,120
2016-10-31T13:57:28.062Z,120
2016-10-31T13:58:39.814Z,115
2016-10-31T13:59:52.556Z,115
2016-10-31T14:01:03.835Z,115
2016-10-31T14:02:15.960Z,115
2016-10-31T14:03:28.002Z,115
2016-10-31T14:04:40.259Z,115
2016-10-31T14:05:52.173Z,115
2016-10-31T14:07:04.348Z,115
2016-10-31T14:08:15.420Z,115
2016-10-31T14:09:27.010Z,110
2016-10-31T14:10:39.491Z,110
2016-10-31T14:11:52.684Z,110
2016-10-31T14:13:05.413Z,110
2016-10-31T14:14:16.789Z,110
2016-10-31T14:15:28.639Z,110
2016-10-31T14:16:39.316Z,110
2016-10-31T14:17:50.782Z,110
2016-10-31T14:19:02.410Z,105
2016-10-31T14:20:14.782Z,105
2016-10-31T14:21:25.648Z,105
2016-10-31T14:22:36.092Z,105
2016-10-31T14:23:46.540Z,105
2016-10-31T14:24:57.279Z,105
2016-10-31T14:26:09.191Z,105
2016-10-31T14:27:20.644Z,105
2016-10-31T14:28:31.898Z,100
2016-10-31T14:29:42.728Z,100
2016-10-31T14:30:53.521Z,100
2016-10-31T14:32:06.760Z,100
2016-10-31T14:33:18.429Z,100
2016-10-31T14:34:29.561Z,100
2016-10-31T14:35:40.934Z,100
2016-10-31T14:36:54.268Z,100
2016-10-31T14:38:04.776Z,100
2016-10-31T14:39:17.497Z,100
2016-10-31T14:40:29.466Z,95
2016-10-31T14:41:41.005Z,95
2016-10-31T14:42:52.250Z,95
2016-10-31T14:44:04.345Z,95
2016-10-31T14:45:16.038Z,95
2016-10-31T14:46:28.518Z,95
2016-10-31T14:47:39.432Z,95
2016-10-31T14:48:51.981Z,95
2016-10-31T14:50:03.629Z,95
2016-10-31T14:51:15.930Z,90
2016-10-31T14:52:28.441Z,90
2016-10-31T14:53:40.059Z,90
2016-10-31T14:54:52.456Z,90
2016-10-31T14:56:05.258Z,90
2016-10-31T14:57:16.733Z,90
2016-10-31T14:58:28.241Z,90
2016-10-31T14:59:40.960Z,90
2016-10-31T15:00:52.219Z,90
2016-10-31T15:02:03.420Z,90
2016-10-31T15:03:14.949Z,90
2016-10-31T15:04:26.662Z,85
2016-10-31T15:05:37.996Z,85
2016-10-31T15:06:49.524Z,85
2016-10-31T15:08:01.905Z,85
2016-10-31T15:09:13.962Z,85
2016-10-31T15:10:26.077Z,85
2016-10-31T15:11:39.374Z,85
2016-10-31T15:12:50.389Z,85
2016-10-31T15:14:02.311Z,85
2016-10-31T15:15:14.127Z,85
2016-10-31T15:16:25.971Z,80
2016-10-31T15:17:37.247Z,80
2016-10-31T15:18:47.435Z,80
2016-10-31T15:19:58.605Z,80
2016-10-31T15:21:10.684Z,80
2016-10-31T15:22:22.801Z,80
2016-10-31T15:23:34.739Z,80
2016-10-31T15:24:45.944Z,80
2016-10-31T15:25:58.129Z,80
2016-10-31T15:27:08.777Z,80
2016-10-31T15:28:21.211Z,75
2016-10-31T15:29:31.953Z,75
2016-10-31T15:30:43.499Z,75
2016-10-31T15:31:54.844Z,75
2016-10-31T15:33:06.918Z,75
2016-10-31T15:34:17.957Z,75
2016-10-31T15:35:28.814Z,75
2016-10-31T15:36:40.795Z,75
2016-10-31T15:37:52.368Z,75
2016-10-31T15:39:04.690Z,70
2016-10-31T15:40:15.738Z,70
2016-10-31T15:41:27.047Z,70
2016-10-31T15:42:39.739Z,70
2016-10-31T15:43:51.302Z,70
2016-10-31T15:45:03.523Z,70
2016-10-31T15:46:14.449Z,70
2016-10-31T15:47:25.076Z,70
2016-10-31T15:48:36.162Z,70
2016-10-31T15:49:47.777Z,65
2016-10-31T15:50:58.550Z,65
2016-10-31T15:52:09.944Z,65
2016-10-31T15:53:21.720Z,65
2016-10-31T15:54:33.357Z,65
2016-10-31T15:55:44.763Z,65
2016-10-31T15:56:55.168Z,60
2016-10-31T15:58:06.353Z,60
2016-10-31T15:59:18.493Z,60
2016-10-31T16:00:29.995Z,60
2016-10-31T16:01:41.975Z,60
2016-10-31T16:02:54.160Z,55
2016-10-31T16:04:05.351Z,55
2016-10-31T16:05:16.977Z,55
2016-10-31T16:06:28.297Z,55
2016-10-31T16:07:39.171Z,55
2016-10-31T16:08:49.617Z,50
2016-10-31T16:10:01.374Z,50
2016-10-31T16:11:11.302Z,50
2016-10-31T16:12:23.072Z,50
2016-10-31T16:13:35.317Z,50
2016-10-31T16:14:47.503Z,45
2016-10-31T16:15:59.566Z,45
2016-10-31T16:17:10.948Z,45
2016-10-31T16:18:22.975Z,45
2016-10-31T16:19:33.105Z,45
2016-10-31T16:20:45.166Z,40
2016-10-31T16:21:57.043Z,40
2016-10-31T16:23:09.177Z,40
2016-10-31T16:24:20.691Z,40
2016-10-31T16:25:32.760Z,35
2016-10-31T16:26:43.696Z,35
2016-10-31T16:27:56.008Z,35
2016-10-31T16:29:08.760Z,35
2016-10-31T16:30:21.002Z,30
2016-10-31T16:31:32.456Z,30
2016-10-31T16:32:43.960Z,30
2016-10-31T16:33:56.274Z,30
2016-10-31T16:35:06.796Z,25
2016-10-31T16:36:17.521Z,25
2016-10-31T16:37:28.057Z,25
2016-10-31T16:38:40.900Z,25
2016-10-31T16:39:52.494Z,20
2016-10-31T16:41:02.581Z,20
2016-10-31T16:42:12.547Z,20
2016-10-31T16:43:24.491Z,20
2016-10-31T16:44:36.945Z,15
2016-10-31T16:45:50.220Z,15
2016-10-31T16:47:03.047Z,15
2016-10-31T16:48:15.306Z,15
2016-10-31T16:49:27.190Z,10
2016-10-31T16:50:38.548Z,10
2016-10-31T16:51:50.263Z,10
2016-10-31T16:53:01.748Z,10
2016-10-31T16:54:12.764Z,10
2016-10-31T16:55:23.316Z,5
2016-10-31T16:56:33.660Z,5
2016-10-31T16:57:46.158Z,5
2016-10-31T16:58:58.415Z,5
2016-10-31T17:00:10.863Z,5
2016-10-31T17:01:21.636Z,5
2016-10-31T17:02:32.631Z,0